sensor_id;sensor_type;location;lat;lon;timestamp;P1;durP1;ratioP1;P2;durP2;ratioP2
80746;SDS011;70144;50.218;14.322;2023-09-18T00:01:46;5.93;;;3.83;;
80746;SDS011;70144;50.218;14.322;2023-09-18T00:04:11;4.60;;;3.58;;
80746;SDS011;70144;50.218;14.322;2023-09-18T00:06:37;6.93;;;4.72;;
80746;SDS011;70144;50.218;14.322;2023-09-18T00:09:02;10.98;;;5.72;;
80746;SDS011;70144;50.218;14.322;2023-09-18T00:11:27;9.85;;;5.28;;
80746;SDS011;70144;50.218;14.322;2023-09-18T00:13:53;11.10;;;5.32;;
80746;SDS011;70144;50.218;14.322;2023-09-18T00:16:18;7.20;;;3.92;;
80746;SDS011;70144;50.218;14.322;2023-09-18T00:18:44;6.47;;;4.22;;
80746;SDS011;70144;50.218;14.322;2023-09-18T00:21:09;8.57;;;4.35;;
80746;SDS011;70144;50.218;14.322;2023-09-18T00:23:36;6.88;;;4.05;;
80746;SDS011;70144;50.218;14.322;2023-09-18T00:28:27;5.72;;;3.75;;
80746;SDS011;70144;50.218;14.322;2023-09-18T00:30:52;4.70;;;3.58;;
80746;SDS011;70144;50.218;14.322;2023-09-18T00:33:18;4.07;;;3.22;;
80746;SDS011;70144;50.218;14.322;2023-09-18T00:35:49;4.68;;;3.67;;
80746;SDS011;70144;50.218;14.322;2023-09-18T00:38:16;5.00;;;3.55;;
80746;SDS011;70144;50.218;14.322;2023-09-18T00:40:42;5.88;;;3.67;;
80746;SDS011;70144;50.218;14.322;2023-09-18T00:43:08;5.55;;;3.50;;
80746;SDS011;70144;50.218;14.322;2023-09-18T00:45:34;6.80;;;3.95;;
80746;SDS011;70144;50.218;14.322;2023-09-18T00:48:03;6.88;;;3.90;;
80746;SDS011;70144;50.218;14.322;2023-09-18T00:50:28;5.63;;;4.45;;
80746;SDS011;70144;50.218;14.322;2023-09-18T00:52:54;6.65;;;3.97;;
80746;SDS011;70144;50.218;14.322;2023-09-18T00:55:19;6.47;;;4.25;;
80746;SDS011;70144;50.218;14.322;2023-09-18T00:57:45;4.90;;;3.47;;
80746;SDS011;70144;50.218;14.322;2023-09-18T01:00:12;7.03;;;4.50;;
80746;SDS011;70144;50.218;14.322;2023-09-18T01:02:41;10.05;;;5.00;;
80746;SDS011;70144;50.218;14.322;2023-09-18T01:05:07;9.95;;;5.60;;
80746;SDS011;70144;50.218;14.322;2023-09-18T01:07:32;13.02;;;5.72;;
80746;SDS011;70144;50.218;14.322;2023-09-18T01:09:58;10.73;;;5.75;;
80746;SDS011;70144;50.218;14.322;2023-09-18T01:12:28;10.05;;;6.05;;
80746;SDS011;70144;50.218;14.322;2023-09-18T01:15:13;9.57;;;4.63;;
80746;SDS011;70144;50.218;14.322;2023-09-18T01:17:41;6.82;;;4.75;;
80746;SDS011;70144;50.218;14.322;2023-09-18T01:20:10;9.05;;;4.53;;
80746;SDS011;70144;50.218;14.322;2023-09-18T01:22:36;7.85;;;5.05;;
80746;SDS011;70144;50.218;14.322;2023-09-18T01:25:02;8.27;;;4.30;;
80746;SDS011;70144;50.218;14.322;2023-09-18T01:27:27;6.75;;;4.63;;
80746;SDS011;70144;50.218;14.322;2023-09-18T01:29:53;6.63;;;4.50;;
80746;SDS011;70144;50.218;14.322;2023-09-18T01:32:18;7.38;;;4.85;;
80746;SDS011;70144;50.218;14.322;2023-09-18T01:34:46;7.57;;;4.93;;
80746;SDS011;70144;50.218;14.322;2023-09-18T01:37:12;9.02;;;5.00;;
80746;SDS011;70144;50.218;14.322;2023-09-18T01:39:40;8.32;;;4.85;;
80746;SDS011;70144;50.218;14.322;2023-09-18T01:42:06;6.70;;;4.53;;
80746;SDS011;70144;50.218;14.322;2023-09-18T01:44:34;5.85;;;4.93;;
80746;SDS011;70144;50.218;14.322;2023-09-18T01:47:04;7.50;;;5.40;;
80746;SDS011;70144;50.218;14.322;2023-09-18T01:49:34;6.70;;;5.40;;
80746;SDS011;70144;50.218;14.322;2023-09-18T01:52:01;8.02;;;5.47;;
80746;SDS011;70144;50.218;14.322;2023-09-18T01:54:28;8.25;;;5.20;;
80746;SDS011;70144;50.218;14.322;2023-09-18T01:56:54;6.15;;;4.90;;
80746;SDS011;70144;50.218;14.322;2023-09-18T01:59:19;6.47;;;5.47;;
80746;SDS011;70144;50.218;14.322;2023-09-18T02:01:46;6.07;;;4.90;;
80746;SDS011;70144;50.218;14.322;2023-09-18T02:04:11;7.68;;;5.10;;
80746;SDS011;70144;50.218;14.322;2023-09-18T02:06:36;6.38;;;4.85;;
80746;SDS011;70144;50.218;14.322;2023-09-18T02:09:02;8.20;;;5.60;;
80746;SDS011;70144;50.218;14.322;2023-09-18T02:11:32;7.10;;;6.13;;
80746;SDS011;70144;50.218;14.322;2023-09-18T02:13:58;7.50;;;5.57;;
80746;SDS011;70144;50.218;14.322;2023-09-18T02:16:23;7.20;;;5.32;;
80746;SDS011;70144;50.218;14.322;2023-09-18T02:18:49;7.88;;;6.70;;
80746;SDS011;70144;50.218;14.322;2023-09-18T02:23:44;8.20;;;6.07;;
80746;SDS011;70144;50.218;14.322;2023-09-18T02:26:09;7.13;;;6.15;;
80746;SDS011;70144;50.218;14.322;2023-09-18T02:28:35;7.28;;;6.47;;
80746;SDS011;70144;50.218;14.322;2023-09-18T02:31:00;8.48;;;6.63;;
80746;SDS011;70144;50.218;14.322;2023-09-18T02:33:25;6.65;;;5.53;;
80746;SDS011;70144;50.218;14.322;2023-09-18T02:35:51;7.47;;;5.90;;
80746;SDS011;70144;50.218;14.322;2023-09-18T02:38:16;7.07;;;5.80;;
80746;SDS011;70144;50.218;14.322;2023-09-18T02:40:41;7.55;;;6.30;;
80746;SDS011;70144;50.218;14.322;2023-09-18T02:43:07;8.35;;;5.53;;
80746;SDS011;70144;50.218;14.322;2023-09-18T02:45:32;7.97;;;5.88;;
80746;SDS011;70144;50.218;14.322;2023-09-18T02:47:58;8.70;;;5.88;;
80746;SDS011;70144;50.218;14.322;2023-09-18T02:50:23;7.82;;;5.78;;
80746;SDS011;70144;50.218;14.322;2023-09-18T02:52:48;7.82;;;5.82;;
80746;SDS011;70144;50.218;14.322;2023-09-18T02:55:14;6.05;;;5.25;;
80746;SDS011;70144;50.218;14.322;2023-09-18T02:57:39;8.52;;;5.78;;
80746;SDS011;70144;50.218;14.322;2023-09-18T03:00:05;7.15;;;5.60;;
80746;SDS011;70144;50.218;14.322;2023-09-18T03:02:32;6.78;;;5.57;;
80746;SDS011;70144;50.218;14.322;2023-09-18T03:04:57;8.65;;;5.65;;
80746;SDS011;70144;50.218;14.322;2023-09-18T03:07:22;6.85;;;6.15;;
80746;SDS011;70144;50.218;14.322;2023-09-18T03:09:48;6.50;;;5.15;;
80746;SDS011;70144;50.218;14.322;2023-09-18T03:12:13;9.18;;;5.57;;
80746;SDS011;70144;50.218;14.322;2023-09-18T03:14:38;8.52;;;5.20;;
80746;SDS011;70144;50.218;14.322;2023-09-18T03:17:04;6.13;;;5.53;;
80746;SDS011;70144;50.218;14.322;2023-09-18T03:19:29;7.50;;;5.70;;
80746;SDS011;70144;50.218;14.322;2023-09-18T03:21:55;6.68;;;5.95;;
80746;SDS011;70144;50.218;14.322;2023-09-18T03:24:21;10.05;;;6.60;;
80746;SDS011;70144;50.218;14.322;2023-09-18T03:26:46;9.60;;;6.93;;
80746;SDS011;70144;50.218;14.322;2023-09-18T03:29:11;8.50;;;6.03;;
80746;SDS011;70144;50.218;14.322;2023-09-18T03:31:37;8.80;;;5.60;;
80746;SDS011;70144;50.218;14.322;2023-09-18T03:34:02;8.57;;;5.80;;
80746;SDS011;70144;50.218;14.322;2023-09-18T03:36:27;8.25;;;6.13;;
80746;SDS011;70144;50.218;14.322;2023-09-18T03:38:53;6.60;;;5.82;;
80746;SDS011;70144;50.218;14.322;2023-09-18T03:41:18;7.47;;;5.82;;
80746;SDS011;70144;50.218;14.322;2023-09-18T03:43:43;8.05;;;6.75;;
80746;SDS011;70144;50.218;14.322;2023-09-18T03:46:08;7.40;;;5.20;;
80746;SDS011;70144;50.218;14.322;2023-09-18T03:48:34;7.18;;;5.90;;
80746;SDS011;70144;50.218;14.322;2023-09-18T03:51:05;6.30;;;5.28;;
80746;SDS011;70144;50.218;14.322;2023-09-18T03:53:32;7.90;;;6.15;;
80746;SDS011;70144;50.218;14.322;2023-09-18T03:55:58;9.25;;;6.60;;
80746;SDS011;70144;50.218;14.322;2023-09-18T03:58:23;7.50;;;5.82;;
80746;SDS011;70144;50.218;14.322;2023-09-18T04:00:49;6.65;;;5.57;;
80746;SDS011;70144;50.218;14.322;2023-09-18T04:03:14;6.47;;;5.22;;
80746;SDS011;70144;50.218;14.322;2023-09-18T04:05:40;6.93;;;5.25;;
80746;SDS011;70144;50.218;14.322;2023-09-18T04:08:05;8.07;;;5.55;;
80746;SDS011;70144;50.218;14.322;2023-09-18T04:10:30;7.35;;;5.97;;
80746;SDS011;70144;50.218;14.322;2023-09-18T04:12:56;7.75;;;5.97;;
80746;SDS011;70144;50.218;14.322;2023-09-18T04:15:22;6.13;;;5.25;;
80746;SDS011;70144;50.218;14.322;2023-09-18T04:17:48;7.68;;;5.72;;
80746;SDS011;70144;50.218;14.322;2023-09-18T04:20:13;6.57;;;5.20;;
80746;SDS011;70144;50.218;14.322;2023-09-18T04:23:16;7.32;;;5.72;;
80746;SDS011;70144;50.218;14.322;2023-09-18T04:25:43;7.03;;;4.97;;
80746;SDS011;70144;50.218;14.322;2023-09-18T04:28:09;8.23;;;5.90;;
80746;SDS011;70144;50.218;14.322;2023-09-18T04:30:34;7.68;;;5.68;;
80746;SDS011;70144;50.218;14.322;2023-09-18T04:33:00;6.38;;;5.60;;
80746;SDS011;70144;50.218;14.322;2023-09-18T04:35:25;7.28;;;5.57;;
80746;SDS011;70144;50.218;14.322;2023-09-18T04:37:55;8.30;;;5.78;;
80746;SDS011;70144;50.218;14.322;2023-09-18T04:40:21;7.28;;;5.80;;
80746;SDS011;70144;50.218;14.322;2023-09-18T04:42:49;7.95;;;5.97;;
80746;SDS011;70144;50.218;14.322;2023-09-18T04:45:14;7.85;;;5.93;;
80746;SDS011;70144;50.218;14.322;2023-09-18T04:47:41;7.20;;;5.90;;
80746;SDS011;70144;50.218;14.322;2023-09-18T04:50:06;10.68;;;6.40;;
80746;SDS011;70144;50.218;14.322;2023-09-18T04:52:33;6.03;;;5.10;;
80746;SDS011;70144;50.218;14.322;2023-09-18T04:54:59;8.35;;;6.03;;
80746;SDS011;70144;50.218;14.322;2023-09-18T04:57:24;9.35;;;6.70;;
80746;SDS011;70144;50.218;14.322;2023-09-18T04:59:50;9.18;;;5.93;;
80746;SDS011;70144;50.218;14.322;2023-09-18T05:02:15;8.05;;;5.90;;
80746;SDS011;70144;50.218;14.322;2023-09-18T05:04:41;7.07;;;5.25;;
80746;SDS011;70144;50.218;14.322;2023-09-18T05:07:07;7.82;;;6.00;;
80746;SDS011;70144;50.218;14.322;2023-09-18T05:09:32;7.60;;;5.53;;
80746;SDS011;70144;50.218;14.322;2023-09-18T05:11:59;7.88;;;5.80;;
80746;SDS011;70144;50.218;14.322;2023-09-18T05:14:24;8.55;;;6.25;;
80746;SDS011;70144;50.218;14.322;2023-09-18T05:16:50;7.22;;;6.25;;
80746;SDS011;70144;50.218;14.322;2023-09-18T05:19:15;15.35;;;7.00;;
80746;SDS011;70144;50.218;14.322;2023-09-18T05:21:40;8.85;;;7.32;;
80746;SDS011;70144;50.218;14.322;2023-09-18T05:26:32;10.30;;;7.85;;
80746;SDS011;70144;50.218;14.322;2023-09-18T05:28:58;10.02;;;7.40;;
80746;SDS011;70144;50.218;14.322;2023-09-18T05:31:23;15.30;;;9.13;;
80746;SDS011;70144;50.218;14.322;2023-09-18T05:33:49;12.98;;;8.95;;
80746;SDS011;70144;50.218;14.322;2023-09-18T05:36:15;12.05;;;8.45;;
80746;SDS011;70144;50.218;14.322;2023-09-18T05:38:40;11.23;;;9.40;;
80746;SDS011;70144;50.218;14.322;2023-09-18T05:41:06;11.60;;;8.57;;
80746;SDS011;70144;50.218;14.322;2023-09-18T05:43:32;11.57;;;8.98;;
80746;SDS011;70144;50.218;14.322;2023-09-18T05:45:57;10.80;;;7.82;;
80746;SDS011;70144;50.218;14.322;2023-09-18T05:48:22;10.70;;;8.68;;
80746;SDS011;70144;50.218;14.322;2023-09-18T05:50:48;10.40;;;8.88;;
80746;SDS011;70144;50.218;14.322;2023-09-18T05:53:13;13.90;;;10.05;;
80746;SDS011;70144;50.218;14.322;2023-09-18T05:55:38;11.35;;;8.40;;
80746;SDS011;70144;50.218;14.322;2023-09-18T05:58:04;9.90;;;7.60;;
80746;SDS011;70144;50.218;14.322;2023-09-18T06:00:31;9.30;;;7.18;;
80746;SDS011;70144;50.218;14.322;2023-09-18T06:02:57;9.15;;;8.00;;
80746;SDS011;70144;50.218;14.322;2023-09-18T06:07:50;9.63;;;7.95;;
80746;SDS011;70144;50.218;14.322;2023-09-18T06:10:16;12.48;;;8.73;;
80746;SDS011;70144;50.218;14.322;2023-09-18T06:12:42;12.38;;;8.88;;
80746;SDS011;70144;50.218;14.322;2023-09-18T06:15:08;9.48;;;7.93;;
80746;SDS011;70144;50.218;14.322;2023-09-18T06:17:42;10.60;;;7.43;;
80746;SDS011;70144;50.218;14.322;2023-09-18T06:20:09;10.65;;;9.55;;
80746;SDS011;70144;50.218;14.322;2023-09-18T06:22:37;10.15;;;8.32;;
80746;SDS011;70144;50.218;14.322;2023-09-18T06:25:03;11.27;;;8.38;;
80746;SDS011;70144;50.218;14.322;2023-09-18T06:29:56;8.93;;;7.57;;
80746;SDS011;70144;50.218;14.322;2023-09-18T06:32:22;13.07;;;9.73;;
80746;SDS011;70144;50.218;14.322;2023-09-18T06:34:47;10.60;;;8.32;;
80746;SDS011;70144;50.218;14.322;2023-09-18T06:37:12;12.57;;;10.07;;
80746;SDS011;70144;50.218;14.322;2023-09-18T06:39:38;12.07;;;9.02;;
80746;SDS011;70144;50.218;14.322;2023-09-18T06:42:04;11.88;;;8.75;;
80746;SDS011;70144;50.218;14.322;2023-09-18T06:44:29;12.43;;;10.73;;
80746;SDS011;70144;50.218;14.322;2023-09-18T06:46:55;13.05;;;9.70;;
80746;SDS011;70144;50.218;14.322;2023-09-18T06:49:20;14.05;;;10.23;;
80746;SDS011;70144;50.218;14.322;2023-09-18T06:51:45;10.80;;;8.70;;
80746;SDS011;70144;50.218;14.322;2023-09-18T06:54:11;10.15;;;8.32;;
80746;SDS011;70144;50.218;14.322;2023-09-18T06:56:36;11.88;;;8.95;;
80746;SDS011;70144;50.218;14.322;2023-09-18T06:59:01;12.82;;;9.98;;
80746;SDS011;70144;50.218;14.322;2023-09-18T07:01:27;14.35;;;9.43;;
80746;SDS011;70144;50.218;14.322;2023-09-18T07:03:53;14.20;;;9.10;;
80746;SDS011;70144;50.218;14.322;2023-09-18T07:06:18;11.57;;;9.48;;
80746;SDS011;70144;50.218;14.322;2023-09-18T07:08:45;10.75;;;8.95;;
80746;SDS011;70144;50.218;14.322;2023-09-18T07:11:11;10.88;;;8.90;;
80746;SDS011;70144;50.218;14.322;2023-09-18T07:13:37;12.18;;;8.40;;
80746;SDS011;70144;50.218;14.322;2023-09-18T07:16:03;9.95;;;8.57;;
80746;SDS011;70144;50.218;14.322;2023-09-18T07:18:29;10.75;;;8.40;;
80746;SDS011;70144;50.218;14.322;2023-09-18T07:20:54;9.32;;;7.63;;
80746;SDS011;70144;50.218;14.322;2023-09-18T07:23:19;10.95;;;8.85;;
80746;SDS011;70144;50.218;14.322;2023-09-18T07:25:47;11.10;;;8.27;;
80746;SDS011;70144;50.218;14.322;2023-09-18T07:28:13;9.35;;;7.68;;
80746;SDS011;70144;50.218;14.322;2023-09-18T07:30:42;8.80;;;7.18;;
80746;SDS011;70144;50.218;14.322;2023-09-18T07:33:11;9.20;;;7.15;;
80746;SDS011;70144;50.218;14.322;2023-09-18T07:38:02;10.43;;;6.40;;
80746;SDS011;70144;50.218;14.322;2023-09-18T07:42:54;8.33;;;6.33;;
80746;SDS011;70144;50.218;14.322;2023-09-18T07:45:19;7.25;;;6.50;;
80746;SDS011;70144;50.218;14.322;2023-09-18T07:47:44;7.03;;;6.32;;
80746;SDS011;70144;50.218;14.322;2023-09-18T07:50:10;7.68;;;6.05;;
80746;SDS011;70144;50.218;14.322;2023-09-18T07:52:35;6.55;;;5.95;;
80746;SDS011;70144;50.218;14.322;2023-09-18T07:55:01;8.35;;;6.38;;
80746;SDS011;70144;50.218;14.322;2023-09-18T07:57:26;7.47;;;6.38;;
80746;SDS011;70144;50.218;14.322;2023-09-18T07:59:54;6.43;;;5.82;;
80746;SDS011;70144;50.218;14.322;2023-09-18T08:02:20;7.60;;;6.43;;
80746;SDS011;70144;50.218;14.322;2023-09-18T08:04:46;8.77;;;6.35;;
80746;SDS011;70144;50.218;14.322;2023-09-18T08:07:12;6.45;;;5.80;;
80746;SDS011;70144;50.218;14.322;2023-09-18T08:09:37;7.45;;;6.13;;
80746;SDS011;70144;50.218;14.322;2023-09-18T08:12:04;6.32;;;5.38;;
80746;SDS011;70144;50.218;14.322;2023-09-18T08:14:33;6.25;;;4.88;;
80746;SDS011;70144;50.218;14.322;2023-09-18T08:17:02;7.63;;;5.75;;
80746;SDS011;70144;50.218;14.322;2023-09-18T08:19:29;6.90;;;5.65;;
80746;SDS011;70144;50.218;14.322;2023-09-18T08:21:55;5.05;;;4.63;;
80746;SDS011;70144;50.218;14.322;2023-09-18T08:24:24;7.85;;;5.65;;
80746;SDS011;70144;50.218;14.322;2023-09-18T08:26:50;7.93;;;6.00;;
80746;SDS011;70144;50.218;14.322;2023-09-18T08:29:15;6.95;;;5.38;;
80746;SDS011;70144;50.218;14.322;2023-09-18T08:31:41;7.43;;;5.45;;
80746;SDS011;70144;50.218;14.322;2023-09-18T08:34:06;6.75;;;6.05;;
80746;SDS011;70144;50.218;14.322;2023-09-18T08:36:32;8.30;;;5.88;;
80746;SDS011;70144;50.218;14.322;2023-09-18T08:41:23;7.60;;;5.77;;
80746;SDS011;70144;50.218;14.322;2023-09-18T08:43:52;6.07;;;5.45;;
80746;SDS011;70144;50.218;14.322;2023-09-18T08:46:20;6.38;;;5.43;;
80746;SDS011;70144;50.218;14.322;2023-09-18T08:48:46;8.35;;;6.03;;
80746;SDS011;70144;50.218;14.322;2023-09-18T08:51:13;7.38;;;5.47;;
80746;SDS011;70144;50.218;14.322;2023-09-18T08:56:04;10.15;;;6.53;;
80746;SDS011;70144;50.218;14.322;2023-09-18T08:58:33;7.78;;;5.70;;
80746;SDS011;70144;50.218;14.322;2023-09-18T09:01:02;7.07;;;6.18;;
80746;SDS011;70144;50.218;14.322;2023-09-18T09:03:31;8.18;;;5.85;;
80746;SDS011;70144;50.218;14.322;2023-09-18T09:08:22;8.40;;;6.10;;
80746;SDS011;70144;50.218;14.322;2023-09-18T09:13:13;9.32;;;5.80;;
80746;SDS011;70144;50.218;14.322;2023-09-18T09:18:11;8.82;;;6.13;;
80746;SDS011;70144;50.218;14.322;2023-09-18T09:23:06;7.18;;;5.20;;
80746;SDS011;70144;50.218;14.322;2023-09-18T09:25:33;7.13;;;5.18;;
80746;SDS011;70144;50.218;14.322;2023-09-18T09:28:03;7.55;;;5.22;;
80746;SDS011;70144;50.218;14.322;2023-09-18T09:30:30;8.10;;;6.25;;
80746;SDS011;70144;50.218;14.322;2023-09-18T09:32:57;6.70;;;5.32;;
80746;SDS011;70144;50.218;14.322;2023-09-18T09:35:27;7.95;;;5.57;;
80746;SDS011;70144;50.218;14.322;2023-09-18T09:37:56;6.30;;;5.28;;
80746;SDS011;70144;50.218;14.322;2023-09-18T09:40:26;6.38;;;5.50;;
80746;SDS011;70144;50.218;14.322;2023-09-18T09:42:52;5.65;;;4.93;;
80746;SDS011;70144;50.218;14.322;2023-09-18T09:45:22;7.07;;;4.72;;
80746;SDS011;70144;50.218;14.322;2023-09-18T09:47:48;5.35;;;4.80;;
80746;SDS011;70144;50.218;14.322;2023-09-18T09:50:22;5.80;;;4.55;;
80746;SDS011;70144;50.218;14.322;2023-09-18T09:52:50;4.43;;;4.00;;
80746;SDS011;70144;50.218;14.322;2023-09-18T09:55:32;5.35;;;4.85;;
80746;SDS011;70144;50.218;14.322;2023-09-18T09:58:03;6.10;;;5.05;;
80746;SDS011;70144;50.218;14.322;2023-09-18T10:00:34;4.72;;;4.28;;
80746;SDS011;70144;50.218;14.322;2023-09-18T10:03:08;5.18;;;4.57;;
80746;SDS011;70144;50.218;14.322;2023-09-18T10:05:39;5.07;;;4.13;;
80746;SDS011;70144;50.218;14.322;2023-09-18T10:08:07;5.20;;;3.95;;
80746;SDS011;70144;50.218;14.322;2023-09-18T10:10:42;4.95;;;4.20;;
80746;SDS011;70144;50.218;14.322;2023-09-18T10:13:18;5.88;;;4.20;;
80746;SDS011;70144;50.218;14.322;2023-09-18T10:15:48;4.30;;;3.80;;
80746;SDS011;70144;50.218;14.322;2023-09-18T10:18:17;6.00;;;4.47;;
80746;SDS011;70144;50.218;14.322;2023-09-18T10:20:47;4.75;;;4.07;;
80746;SDS011;70144;50.218;14.322;2023-09-18T10:23:21;4.93;;;3.70;;
80746;SDS011;70144;50.218;14.322;2023-09-18T10:25:59;4.78;;;4.28;;
80746;SDS011;70144;50.218;14.322;2023-09-18T10:28:29;5.60;;;4.28;;
80746;SDS011;70144;50.218;14.322;2023-09-18T10:30:56;4.65;;;3.72;;
80746;SDS011;70144;50.218;14.322;2023-09-18T10:33:23;6.45;;;4.03;;
80746;SDS011;70144;50.218;14.322;2023-09-18T10:35:48;4.22;;;3.67;;
80746;SDS011;70144;50.218;14.322;2023-09-18T10:38:15;4.50;;;4.10;;
80746;SDS011;70144;50.218;14.322;2023-09-18T10:40:42;3.70;;;3.08;;
80746;SDS011;70144;50.218;14.322;2023-09-18T10:43:08;5.10;;;3.55;;
80746;SDS011;70144;50.218;14.322;2023-09-18T10:45:36;3.85;;;3.25;;
80746;SDS011;70144;50.218;14.322;2023-09-18T10:48:02;5.53;;;3.30;;
80746;SDS011;70144;50.218;14.322;2023-09-18T10:50:33;4.28;;;3.20;;
80746;SDS011;70144;50.218;14.322;2023-09-18T10:53:00;3.60;;;3.30;;
80746;SDS011;70144;50.218;14.322;2023-09-18T10:55:25;4.90;;;3.70;;
80746;SDS011;70144;50.218;14.322;2023-09-18T10:57:58;4.05;;;2.80;;
80746;SDS011;70144;50.218;14.322;2023-09-18T11:00:25;4.88;;;3.30;;
80746;SDS011;70144;50.218;14.322;2023-09-18T11:02:53;4.57;;;2.63;;
80746;SDS011;70144;50.218;14.322;2023-09-18T11:08:30;4.30;;;3.22;;
80746;SDS011;70144;50.218;14.322;2023-09-18T11:11:17;3.33;;;3.03;;
80746;SDS011;70144;50.218;14.322;2023-09-18T11:13:51;3.58;;;2.92;;
80746;SDS011;70144;50.218;14.322;2023-09-18T11:21:19;3.38;;;3.15;;
80746;SDS011;70144;50.218;14.322;2023-09-18T11:26:22;2.90;;;2.60;;
80746;SDS011;70144;50.218;14.322;2023-09-18T11:28:48;3.47;;;3.17;;
80746;SDS011;70144;50.218;14.322;2023-09-18T11:31:15;3.92;;;2.63;;
80746;SDS011;70144;50.218;14.322;2023-09-18T11:33:41;3.45;;;2.90;;
80746;SDS011;70144;50.218;14.322;2023-09-18T11:36:29;4.57;;;3.22;;
80746;SDS011;70144;50.218;14.322;2023-09-18T11:38:57;4.40;;;3.10;;
80746;SDS011;70144;50.218;14.322;2023-09-18T11:41:30;3.35;;;3.05;;
80746;SDS011;70144;50.218;14.322;2023-09-18T11:46:50;4.05;;;2.85;;
80746;SDS011;70144;50.218;14.322;2023-09-18T11:49:23;4.55;;;3.22;;
80746;SDS011;70144;50.218;14.322;2023-09-18T11:51:52;4.05;;;3.17;;
80746;SDS011;70144;50.218;14.322;2023-09-18T11:54:18;3.47;;;3.15;;
80746;SDS011;70144;50.218;14.322;2023-09-18T11:56:44;4.03;;;2.85;;
80746;SDS011;70144;50.218;14.322;2023-09-18T11:59:09;4.20;;;3.20;;
80746;SDS011;70144;50.218;14.322;2023-09-18T12:01:35;4.93;;;3.30;;
80746;SDS011;70144;50.218;14.322;2023-09-18T12:04:01;3.50;;;2.88;;
80746;SDS011;70144;50.218;14.322;2023-09-18T12:06:38;4.45;;;3.60;;
80746;SDS011;70144;50.218;14.322;2023-09-18T12:09:05;6.18;;;3.28;;
80746;SDS011;70144;50.218;14.322;2023-09-18T12:11:30;4.72;;;3.33;;
80746;SDS011;70144;50.218;14.322;2023-09-18T12:13:56;3.80;;;3.40;;
80746;SDS011;70144;50.218;14.322;2023-09-18T12:16:23;4.30;;;3.65;;
80746;SDS011;70144;50.218;14.322;2023-09-18T12:18:48;3.33;;;3.03;;
80746;SDS011;70144;50.218;14.322;2023-09-18T12:21:14;3.42;;;3.08;;
80746;SDS011;70144;50.218;14.322;2023-09-18T12:23:42;3.70;;;3.22;;
80746;SDS011;70144;50.218;14.322;2023-09-18T12:26:10;5.55;;;3.22;;
80746;SDS011;70144;50.218;14.322;2023-09-18T12:28:38;3.45;;;3.05;;
80746;SDS011;70144;50.218;14.322;2023-09-18T12:31:04;3.40;;;3.05;;
80746;SDS011;70144;50.218;14.322;2023-09-18T12:33:30;3.70;;;2.70;;
80746;SDS011;70144;50.218;14.322;2023-09-18T12:35:59;4.15;;;2.95;;
80746;SDS011;70144;50.218;14.322;2023-09-18T12:38:24;3.25;;;2.95;;
80746;SDS011;70144;50.218;14.322;2023-09-18T12:40:52;3.30;;;2.95;;
80746;SDS011;70144;50.218;14.322;2023-09-18T12:43:18;3.13;;;2.83;;
80746;SDS011;70144;50.218;14.322;2023-09-18T12:45:45;4.57;;;3.05;;
80746;SDS011;70144;50.218;14.322;2023-09-18T12:48:12;4.03;;;2.97;;
80746;SDS011;70144;50.218;14.322;2023-09-18T12:50:38;3.85;;;3.17;;
80746;SDS011;70144;50.218;14.322;2023-09-18T12:55:32;3.10;;;2.78;;
80746;SDS011;70144;50.218;14.322;2023-09-18T12:57:58;3.28;;;2.90;;
80746;SDS011;70144;50.218;14.322;2023-09-18T13:00:24;3.17;;;2.78;;
80746;SDS011;70144;50.218;14.322;2023-09-18T13:02:51;3.97;;;3.03;;
80746;SDS011;70144;50.218;14.322;2023-09-18T13:05:20;3.10;;;2.67;;
80746;SDS011;70144;50.218;14.322;2023-09-18T13:07:50;3.08;;;2.63;;
80746;SDS011;70144;50.218;14.322;2023-09-18T13:10:16;3.38;;;2.95;;
80746;SDS011;70144;50.218;14.322;2023-09-18T13:12:51;4.70;;;3.20;;
80746;SDS011;70144;50.218;14.322;2023-09-18T13:15:31;4.93;;;3.15;;
80746;SDS011;70144;50.218;14.322;2023-09-18T13:17:58;5.28;;;3.30;;
80746;SDS011;70144;50.218;14.322;2023-09-18T13:20:26;5.32;;;3.13;;
80746;SDS011;70144;50.218;14.322;2023-09-18T13:22:57;3.88;;;3.17;;
80746;SDS011;70144;50.218;14.322;2023-09-18T13:27:54;5.28;;;3.38;;
80746;SDS011;70144;50.218;14.322;2023-09-18T13:30:20;3.33;;;3.03;;
80746;SDS011;70144;50.218;14.322;2023-09-18T13:32:47;3.88;;;2.90;;
80746;SDS011;70144;50.218;14.322;2023-09-18T13:35:14;5.18;;;3.22;;
80746;SDS011;70144;50.218;14.322;2023-09-18T13:37:43;4.25;;;3.17;;
80746;SDS011;70144;50.218;14.322;2023-09-18T13:40:09;5.03;;;3.33;;
80746;SDS011;70144;50.218;14.322;2023-09-18T13:42:36;3.72;;;3.40;;
80746;SDS011;70144;50.218;14.322;2023-09-18T13:45:04;5.57;;;3.38;;
80746;SDS011;70144;50.218;14.322;2023-09-18T13:47:34;3.72;;;3.42;;
80746;SDS011;70144;50.218;14.322;2023-09-18T13:50:00;4.35;;;3.30;;
80746;SDS011;70144;50.218;14.322;2023-09-18T13:52:29;3.50;;;3.20;;
80746;SDS011;70144;50.218;14.322;2023-09-18T13:54:56;4.05;;;3.60;;
80746;SDS011;70144;50.218;14.322;2023-09-18T13:57:21;4.40;;;3.45;;
80746;SDS011;70144;50.218;14.322;2023-09-18T13:59:48;3.78;;;3.10;;
80746;SDS011;70144;50.218;14.322;2023-09-18T14:02:14;5.05;;;3.22;;
80746;SDS011;70144;50.218;14.322;2023-09-18T14:04:40;5.25;;;3.75;;
80746;SDS011;70144;50.218;14.322;2023-09-18T14:07:06;4.68;;;2.90;;
80746;SDS011;70144;50.218;14.322;2023-09-18T14:09:33;4.88;;;3.67;;
80746;SDS011;70144;50.218;14.322;2023-09-18T14:11:58;4.32;;;3.35;;
80746;SDS011;70144;50.218;14.322;2023-09-18T14:14:24;5.43;;;3.33;;
80746;SDS011;70144;50.218;14.322;2023-09-18T14:16:50;7.05;;;3.25;;
80746;SDS011;70144;50.218;14.322;2023-09-18T14:19:16;4.60;;;3.58;;
80746;SDS011;70144;50.218;14.322;2023-09-18T14:21:41;3.70;;;2.65;;
80746;SDS011;70144;50.218;14.322;2023-09-18T14:24:07;3.90;;;3.50;;
80746;SDS011;70144;50.218;14.322;2023-09-18T14:26:33;4.80;;;3.20;;
80746;SDS011;70144;50.218;14.322;2023-09-18T14:29:05;4.03;;;3.03;;
80746;SDS011;70144;50.218;14.322;2023-09-18T14:31:31;3.58;;;3.00;;
80746;SDS011;70144;50.218;14.322;2023-09-18T14:33:56;5.38;;;3.20;;
80746;SDS011;70144;50.218;14.322;2023-09-18T14:36:23;3.42;;;2.88;;
80746;SDS011;70144;50.218;14.322;2023-09-18T14:38:49;4.65;;;3.33;;
80746;SDS011;70144;50.218;14.322;2023-09-18T14:41:14;3.42;;;3.00;;
80746;SDS011;70144;50.218;14.322;2023-09-18T14:43:39;3.88;;;2.90;;
80746;SDS011;70144;50.218;14.322;2023-09-18T14:46:05;3.58;;;3.28;;
80746;SDS011;70144;50.218;14.322;2023-09-18T14:48:30;4.30;;;3.47;;
80746;SDS011;70144;50.218;14.322;2023-09-18T14:50:57;3.75;;;3.10;;
80746;SDS011;70144;50.218;14.322;2023-09-18T14:53:22;5.07;;;3.88;;
80746;SDS011;70144;50.218;14.322;2023-09-18T14:55:48;4.60;;;3.25;;
80746;SDS011;70144;50.218;14.322;2023-09-18T14:58:13;5.13;;;3.25;;
80746;SDS011;70144;50.218;14.322;2023-09-18T15:00:39;4.25;;;3.83;;
80746;SDS011;70144;50.218;14.322;2023-09-18T15:03:05;3.75;;;3.10;;
80746;SDS011;70144;50.218;14.322;2023-09-18T15:05:30;5.50;;;3.33;;
80746;SDS011;70144;50.218;14.322;2023-09-18T15:07:55;4.32;;;3.45;;
80746;SDS011;70144;50.218;14.322;2023-09-18T15:10:21;3.75;;;3.17;;
80746;SDS011;70144;50.218;14.322;2023-09-18T15:12:47;4.30;;;3.85;;
80746;SDS011;70144;50.218;14.322;2023-09-18T15:15:13;4.97;;;3.78;;
80746;SDS011;70144;50.218;14.322;2023-09-18T15:17:38;4.68;;;4.00;;
80746;SDS011;70144;50.218;14.322;2023-09-18T15:20:04;4.68;;;4.15;;
80746;SDS011;70144;50.218;14.322;2023-09-18T15:22:30;3.97;;;3.58;;